createdAt,value
2023-04-13T00:00:37.955Z,8.60
2023-04-13T00:03:05.528Z,8.60
2023-04-13T00:05:34.692Z,8.60
2023-04-13T00:08:02.942Z,8.60
2023-04-13T00:10:37.201Z,8.50
2023-04-13T00:13:05.399Z,8.50
2023-04-13T00:15:34.974Z,8.50
2023-04-13T00:18:02.171Z,8.50
2023-04-13T00:20:29.912Z,8.40
2023-04-13T00:22:57.108Z,8.50
2023-04-13T00:25:24.095Z,8.50
2023-04-13T00:27:53.090Z,8.50
2023-04-13T00:30:21.454Z,8.50
2023-04-13T00:32:49.207Z,8.50
2023-04-13T00:35:19.331Z,8.50
2023-04-13T00:37:49.263Z,8.50
2023-04-13T00:40:16.897Z,8.60
2023-04-13T00:42:48.647Z,8.60
2023-04-13T00:45:18.145Z,8.60
2023-04-13T00:47:49.417Z,8.60
2023-04-13T00:50:21.248Z,8.60
2023-04-13T00:52:49.283Z,8.70
2023-04-13T00:55:21.238Z,8.60
2023-04-13T00:57:52.673Z,8.70
2023-04-13T01:00:21.339Z,8.60
2023-04-13T01:02:48.413Z,8.60
2023-04-13T01:05:17.092Z,8.60
2023-04-13T01:07:54.778Z,8.60
2023-04-13T01:10:31.551Z,8.70
2023-04-13T01:13:19.772Z,8.70
2023-04-13T01:16:01.434Z,8.70
2023-04-13T01:18:30.496Z,8.70
2023-04-13T01:21:00.896Z,8.80
2023-04-13T01:23:48.481Z,8.80
2023-04-13T01:26:17.296Z,8.80
2023-04-13T01:28:46.222Z,8.80
2023-04-13T01:31:13.920Z,8.90
2023-04-13T01:33:41.679Z,8.80
2023-04-13T01:36:10.868Z,8.90
2023-04-13T01:38:38.003Z,8.90
2023-04-13T01:41:05.109Z,8.90
2023-04-13T01:43:33.011Z,8.90
2023-04-13T01:46:16.346Z,8.90
2023-04-13T01:48:56.393Z,8.90
2023-04-13T01:51:29.390Z,8.90
2023-04-13T01:54:07.912Z,9.00
2023-04-13T01:56:35.851Z,9.00
2023-04-13T01:59:03.239Z,9.00
2023-04-13T02:01:30.153Z,9.00
2023-04-13T02:03:57.802Z,9.10
2023-04-13T02:06:25.998Z,9.10
2023-04-13T02:08:53.458Z,9.10
2023-04-13T02:11:20.355Z,9.10
2023-04-13T02:13:47.460Z,9.20
2023-04-13T02:16:15.840Z,9.20
2023-04-13T02:18:42.922Z,9.20
2023-04-13T02:21:11.324Z,9.20
2023-04-13T02:23:40.709Z,9.20
2023-04-13T02:26:09.632Z,9.20
2023-04-13T02:28:36.753Z,9.20
2023-04-13T02:31:03.815Z,9.10
2023-04-13T02:33:31.756Z,9.10
2023-04-13T02:35:59.749Z,9.10
2023-04-13T02:38:28.143Z,9.10
2023-04-13T02:40:56.117Z,9.10
2023-04-13T02:43:23.179Z,9.00
2023-04-13T02:45:50.344Z,9.00
2023-04-13T02:48:17.362Z,9.00
2023-04-13T02:50:44.280Z,8.90
2023-04-13T02:53:11.164Z,8.90
2023-04-13T02:55:39.070Z,8.90
2023-04-13T02:58:09.238Z,8.90
2023-04-13T03:00:36.173Z,8.80
2023-04-13T03:03:09.723Z,8.80
2023-04-13T03:05:37.241Z,8.80
2023-04-13T03:08:05.405Z,8.80
2023-04-13T03:10:32.362Z,8.80
2023-04-13T03:12:59.889Z,8.80
2023-04-13T03:15:26.904Z,8.80
2023-04-13T03:17:53.827Z,8.90
2023-04-13T03:20:23.670Z,8.80
2023-04-13T03:22:53.545Z,8.90
2023-04-13T03:25:20.628Z,8.90
2023-04-13T03:27:47.642Z,8.90
2023-04-13T03:30:14.621Z,8.90
2023-04-13T03:32:41.616Z,8.90
2023-04-13T03:35:08.911Z,8.90
2023-04-13T03:37:42.675Z,8.90
2023-04-13T03:40:10.591Z,8.90
2023-04-13T03:42:37.979Z,8.90
2023-04-13T03:45:06.680Z,8.90
2023-04-13T03:47:33.915Z,8.90
2023-04-13T03:50:00.932Z,8.80
2023-04-13T03:52:27.905Z,8.80
2023-04-13T03:54:55.647Z,8.80
2023-04-13T03:57:22.825Z,8.70
2023-04-13T03:59:49.882Z,8.70
2023-04-13T04:02:16.963Z,8.60
2023-04-13T04:04:44.123Z,8.60
2023-04-13T04:07:11.522Z,8.60
2023-04-13T04:09:38.983Z,8.50
2023-04-13T04:12:06.098Z,8.50
2023-04-13T04:14:33.020Z,8.50
2023-04-13T04:16:59.911Z,8.50
2023-04-13T04:19:26.868Z,8.50
2023-04-13T04:21:53.768Z,8.40
2023-04-13T04:24:22.717Z,8.40
2023-04-13T04:26:50.516Z,8.40
2023-04-13T04:29:21.999Z,8.40
2023-04-13T04:31:53.756Z,8.40
2023-04-13T04:34:21.079Z,8.40
2023-04-13T04:36:52.016Z,8.40
2023-04-13T04:39:22.638Z,8.40
2023-04-13T04:42:03.735Z,8.40
2023-04-13T04:44:31.400Z,8.40
2023-04-13T04:47:02.841Z,8.40
2023-04-13T04:49:30.182Z,8.40
2023-04-13T04:51:58.121Z,8.30
2023-04-13T04:54:25.686Z,8.30
2023-04-13T04:56:53.462Z,8.30
2023-04-13T04:59:20.553Z,8.40
2023-04-13T05:01:49.665Z,8.40
2023-04-13T05:04:17.180Z,8.30
2023-04-13T05:06:44.684Z,8.30
2023-04-13T05:09:12.032Z,8.20
2023-04-13T05:11:39.241Z,8.20
2023-04-13T05:14:06.552Z,8.20
2023-04-13T05:16:34.451Z,8.20
2023-04-13T05:19:02.232Z,8.10
2023-04-13T05:21:29.384Z,8.10
2023-04-13T05:23:56.976Z,8.10
2023-04-13T05:26:25.492Z,8.00
2023-04-13T05:28:52.767Z,8.00
2023-04-13T05:31:20.298Z,7.90
2023-04-13T05:33:47.247Z,7.80
2023-04-13T05:36:14.156Z,7.80
2023-04-13T05:38:41.067Z,7.80
2023-04-13T05:41:08.129Z,7.80
2023-04-13T05:43:35.233Z,7.90
2023-04-13T05:46:02.622Z,7.90
2023-04-13T05:48:31.550Z,7.90
2023-04-13T05:51:00.192Z,7.90
2023-04-13T05:53:27.173Z,7.90
2023-04-13T05:55:54.713Z,7.80
2023-04-13T05:58:22.173Z,7.80
2023-04-13T06:00:49.071Z,7.80
2023-04-13T06:03:17.236Z,7.80
2023-04-13T06:05:44.853Z,7.90
2023-04-13T06:08:11.897Z,7.90
2023-04-13T06:10:39.298Z,7.90
2023-04-13T06:13:06.231Z,7.90
2023-04-13T06:15:34.051Z,7.90
2023-04-13T06:18:01.241Z,7.90
2023-04-13T06:20:28.301Z,7.90
2023-04-13T06:22:55.226Z,8.00
2023-04-13T06:25:22.501Z,8.00
2023-04-13T06:27:50.121Z,8.00
2023-04-13T06:30:17.497Z,8.00
2023-04-13T06:32:44.569Z,8.00
2023-04-13T06:35:12.632Z,8.00
2023-04-13T06:37:39.582Z,8.00
2023-04-13T06:40:11.041Z,8.00
2023-04-13T06:42:42.473Z,8.00
2023-04-13T06:45:10.789Z,8.10
2023-04-13T06:47:41.060Z,8.10
2023-04-13T06:50:09.519Z,8.20
2023-04-13T06:52:43.359Z,8.20
2023-04-13T06:55:10.479Z,8.20
2023-04-13T06:57:37.482Z,8.20
2023-04-13T07:00:12.514Z,8.30
2023-04-13T07:02:49.242Z,8.30
2023-04-13T07:05:16.620Z,8.30
2023-04-13T07:07:43.951Z,8.40
2023-04-13T07:10:11.108Z,8.40
2023-04-13T07:12:38.056Z,8.40
2023-04-13T07:15:05.396Z,8.40
2023-04-13T07:17:32.430Z,8.40
2023-04-13T07:19:59.423Z,8.50
2023-04-13T07:22:31.228Z,8.50
2023-04-13T07:24:58.116Z,8.50
2023-04-13T07:27:25.340Z,8.50
2023-04-13T07:29:52.651Z,8.70
2023-04-13T07:32:21.054Z,8.70
2023-04-13T07:34:48.236Z,8.60
2023-04-13T07:37:15.492Z,8.70
2023-04-13T07:39:43.388Z,8.70
2023-04-13T07:42:10.431Z,8.70
2023-04-13T07:44:37.304Z,8.80
2023-04-13T07:47:04.435Z,8.80
2023-04-13T07:49:31.361Z,8.80
2023-04-13T07:51:58.531Z,8.80
2023-04-13T07:54:25.432Z,8.90
2023-04-13T07:56:52.396Z,8.90
2023-04-13T07:59:19.281Z,8.90
2023-04-13T08:01:46.429Z,9.00
2023-04-13T08:04:13.720Z,9.10
2023-04-13T08:06:40.945Z,9.10
2023-04-13T08:09:08.162Z,9.10
2023-04-13T08:11:35.190Z,9.10
2023-04-13T08:14:02.310Z,9.10
2023-04-13T08:16:34.381Z,9.10
2023-04-13T08:19:02.054Z,9.00
2023-04-13T08:21:30.034Z,9.10
2023-04-13T08:23:57.415Z,9.10
2023-04-13T08:26:24.928Z,9.10
2023-04-13T08:28:53.118Z,9.20
2023-04-13T08:31:20.629Z,9.10
2023-04-13T08:33:47.774Z,9.10
2023-04-13T08:36:14.780Z,9.10
2023-04-13T08:38:41.694Z,9.10
2023-04-13T08:41:09.994Z,9.10
2023-04-13T08:43:36.905Z,9.10
2023-04-13T08:46:07.843Z,9.10
2023-04-13T08:48:52.898Z,9.20
2023-04-13T08:51:22.555Z,9.20
2023-04-13T08:53:53.234Z,9.30
2023-04-13T08:56:24.135Z,9.30
2023-04-13T08:59:15.490Z,9.30
2023-04-13T09:01:48.813Z,9.40
2023-04-13T09:04:20.754Z,9.40
2023-04-13T09:06:51.434Z,9.40
2023-04-13T09:09:19.225Z,9.40
2023-04-13T09:11:48.449Z,9.40
2023-04-13T09:14:22.166Z,9.30
2023-04-13T09:16:49.780Z,9.30
2023-04-13T09:19:17.639Z,9.30
2023-04-13T09:21:45.400Z,9.20
2023-04-13T09:24:12.854Z,9.10
2023-04-13T09:26:47.686Z,9.10
2023-04-13T09:29:19.201Z,9.10
2023-04-13T09:31:47.657Z,9.10
2023-04-13T09:34:26.181Z,9.10
2023-04-13T09:36:56.097Z,9.10
2023-04-13T09:39:26.217Z,9.00
2023-04-13T09:41:54.299Z,9.00
2023-04-13T09:44:24.474Z,9.00
2023-04-13T09:47:02.036Z,9.00
2023-04-13T09:49:39.501Z,8.90
2023-04-13T09:52:09.941Z,8.90
2023-04-13T09:54:37.179Z,8.80
2023-04-13T09:57:05.129Z,8.80
2023-04-13T09:59:33.141Z,8.80
2023-04-13T10:02:03.691Z,8.70
2023-04-13T10:04:31.222Z,8.70
2023-04-13T10:06:58.651Z,8.70
2023-04-13T10:09:26.592Z,8.60
2023-04-13T10:11:56.745Z,8.70
2023-04-13T10:14:28.042Z,8.60
2023-04-13T10:17:05.863Z,8.60
2023-04-13T10:19:51.235Z,8.50
2023-04-13T10:22:22.768Z,8.60
2023-04-13T10:24:52.952Z,8.50
2023-04-13T10:27:21.717Z,8.50
2023-04-13T10:29:50.049Z,8.50
2023-04-13T10:32:32.083Z,8.50
2023-04-13T10:35:10.064Z,8.50
2023-04-13T10:37:38.201Z,8.50
2023-04-13T10:40:10.528Z,8.40
2023-04-13T10:42:52.197Z,8.40
2023-04-13T10:45:26.268Z,8.40
2023-04-13T10:47:58.510Z,8.40
2023-04-13T10:50:27.773Z,8.40
2023-04-13T10:53:04.986Z,8.30
2023-04-13T10:55:33.662Z,8.30
2023-04-13T10:58:15.863Z,8.30
2023-04-13T11:00:46.665Z,8.30
2023-04-13T11:03:19.164Z,8.30
2023-04-13T11:05:47.807Z,8.30
2023-04-13T11:08:21.410Z,8.20
2023-04-13T11:10:53.453Z,8.20
2023-04-13T11:13:21.462Z,8.20
2023-04-13T11:15:49.579Z,8.10
2023-04-13T11:18:26.543Z,8.10
2023-04-13T11:20:54.231Z,8.10
2023-04-13T11:23:24.103Z,8.00
2023-04-13T11:25:53.182Z,8.00
2023-04-13T11:28:20.409Z,8.00
2023-04-13T11:30:56.238Z,8.00
2023-04-13T11:33:27.556Z,7.80
2023-04-13T11:35:59.054Z,7.90
2023-04-13T11:38:27.592Z,7.80
2023-04-13T11:41:15.837Z,7.80
2023-04-13T11:43:46.448Z,7.80
2023-04-13T11:46:15.644Z,7.80
2023-04-13T11:48:43.711Z,7.70
2023-04-13T11:51:11.565Z,7.80
2023-04-13T11:53:40.364Z,7.80
2023-04-13T11:56:08.072Z,7.80
2023-04-13T11:58:37.424Z,7.80
2023-04-13T12:03:55.609Z,7.70
2023-04-13T12:06:24.610Z,7.70
2023-04-13T12:09:09.399Z,7.70
2023-04-13T12:11:46.567Z,7.70
2023-04-13T12:19:26.567Z,7.60
2023-04-13T12:21:56.759Z,7.60
2023-04-13T12:24:39.535Z,7.50
2023-04-13T12:27:16.905Z,7.60
2023-04-13T12:29:44.604Z,7.60
2023-04-13T12:32:14.898Z,7.60
2023-04-13T12:34:43.375Z,7.50
2023-04-13T12:37:13.363Z,7.40
2023-04-13T12:39:41.795Z,7.40
2023-04-13T12:42:08.760Z,7.30
2023-04-13T12:44:36.108Z,7.20
2023-04-13T12:47:03.154Z,7.10
2023-04-13T12:49:30.274Z,7.00
2023-04-13T12:51:57.371Z,6.90
2023-04-13T12:54:24.561Z,6.90
2023-04-13T12:56:52.067Z,6.80
2023-04-13T12:59:21.884Z,6.80
2023-04-13T13:01:49.450Z,6.80
2023-04-13T13:04:16.873Z,6.60
2023-04-13T13:06:43.874Z,6.60
2023-04-13T13:09:10.933Z,6.60
2023-04-13T13:11:37.979Z,6.60
2023-04-13T13:14:05.402Z,6.60
2023-04-13T13:16:32.667Z,6.50
2023-04-13T13:18:59.688Z,6.50
2023-04-13T13:21:26.723Z,6.50
2023-04-13T13:23:53.744Z,6.40
2023-04-13T13:26:24.314Z,6.30
2023-04-13T13:28:53.658Z,6.40
2023-04-13T13:31:20.822Z,6.30
2023-04-13T13:33:48.003Z,6.30
2023-04-13T13:36:15.514Z,6.20
2023-04-13T13:38:43.497Z,6.20
2023-04-13T13:41:10.995Z,6.20
2023-04-13T13:43:38.500Z,6.10
2023-04-13T13:46:06.097Z,6.10
2023-04-13T13:48:33.053Z,6.10
2023-04-13T13:51:00.401Z,6.00
2023-04-13T13:53:27.394Z,6.10
2023-04-13T13:55:55.496Z,6.10
2023-04-13T13:58:22.511Z,6.10
2023-04-13T14:00:50.474Z,6.10
2023-04-13T14:03:17.728Z,6.10
2023-04-13T14:05:44.896Z,6.10
2023-04-13T14:08:11.942Z,6.00
2023-04-13T14:10:39.196Z,6.00
2023-04-13T14:13:06.528Z,6.00
2023-04-13T14:15:33.636Z,6.00
2023-04-13T14:18:09.223Z,6.00
2023-04-13T14:20:40.890Z,5.90
2023-04-13T14:23:09.484Z,5.90
2023-04-13T14:25:37.513Z,6.00
2023-04-13T14:28:04.553Z,5.90
2023-04-13T14:30:31.496Z,5.90
2023-04-13T14:32:58.443Z,6.00
2023-04-13T14:35:25.360Z,6.00
2023-04-13T14:37:52.978Z,6.00
2023-04-13T14:40:22.642Z,6.00
2023-04-13T14:42:52.881Z,5.90
2023-04-13T14:45:22.988Z,5.90
2023-04-13T14:47:50.566Z,5.90
2023-04-13T14:50:17.771Z,6.00
2023-04-13T14:52:48.685Z,5.90
2023-04-13T14:55:17.161Z,5.90
2023-04-13T14:57:45.251Z,5.90
2023-04-13T15:00:24.989Z,5.90
2023-04-13T15:02:54.929Z,5.90
2023-04-13T15:05:22.271Z,5.90
2023-04-13T15:07:50.965Z,5.90
2023-04-13T15:10:19.134Z,5.90
2023-04-13T15:12:46.565Z,5.90
2023-04-13T15:15:13.556Z,5.90
2023-04-13T15:17:40.699Z,5.90
2023-04-13T15:20:08.169Z,5.80
2023-04-13T15:22:36.247Z,5.80
2023-04-13T15:25:03.583Z,5.80
2023-04-13T15:27:31.142Z,5.80
2023-04-13T15:30:00.148Z,5.80
2023-04-13T15:32:28.449Z,5.80
2023-04-13T15:34:56.650Z,5.80
2023-04-13T15:37:24.125Z,5.70
2023-04-13T15:39:51.163Z,5.80
2023-04-13T15:42:21.043Z,5.70
2023-04-13T15:44:48.328Z,5.80
2023-04-13T15:47:15.472Z,5.80
2023-04-13T15:49:42.580Z,5.80
2023-04-13T15:52:09.482Z,5.90
2023-04-13T15:54:36.586Z,5.80
2023-04-13T15:57:03.572Z,5.90
2023-04-13T15:59:32.763Z,5.80
2023-04-13T16:01:59.810Z,5.80
2023-04-13T16:04:27.251Z,5.80
2023-04-13T16:07:09.166Z,5.80
2023-04-13T16:09:40.324Z,5.80
2023-04-13T16:12:11.057Z,5.80
2023-04-13T16:14:45.297Z,5.80
2023-04-13T16:17:14.993Z,5.80
2023-04-13T16:19:47.344Z,5.80
2023-04-13T16:22:14.573Z,5.70
2023-04-13T16:24:42.058Z,5.70
2023-04-13T16:27:10.201Z,5.80
2023-04-13T16:29:37.723Z,5.70
2023-04-13T16:32:04.767Z,5.70
2023-04-13T16:34:32.053Z,5.70
2023-04-13T16:36:58.928Z,5.70
2023-04-13T16:39:26.426Z,5.70
2023-04-13T16:41:53.292Z,5.80
2023-04-13T16:44:20.468Z,5.70
2023-04-13T16:46:47.465Z,5.70
2023-04-13T16:49:14.649Z,5.80
2023-04-13T16:51:41.629Z,5.80
2023-04-13T16:54:11.641Z,5.70
2023-04-13T16:56:38.616Z,5.70
2023-04-13T16:59:05.581Z,5.70
2023-04-13T17:01:32.642Z,5.70
2023-04-13T17:03:59.635Z,5.70
2023-04-13T17:06:27.358Z,5.60
2023-04-13T17:08:54.327Z,5.60
2023-04-13T17:11:21.665Z,5.60
2023-04-13T17:13:48.770Z,5.60
2023-04-13T17:16:16.426Z,5.60
2023-04-13T17:18:43.459Z,5.70
2023-04-13T17:21:10.376Z,5.70
2023-04-13T17:23:37.340Z,5.70
2023-04-13T17:26:04.479Z,5.70
2023-04-13T17:28:31.387Z,5.60
2023-04-13T17:30:58.361Z,5.60
2023-04-13T17:33:28.012Z,5.60
2023-04-13T17:35:55.438Z,5.60
2023-04-13T17:38:22.410Z,5.60
2023-04-13T17:40:50.894Z,5.60
2023-04-13T17:43:18.324Z,5.60
2023-04-13T17:45:45.366Z,5.60
2023-04-13T17:48:12.499Z,5.60
2023-04-13T17:50:39.551Z,5.60
2023-04-13T17:53:06.689Z,5.60
2023-04-13T17:55:37.186Z,5.60
2023-04-13T17:58:04.469Z,5.60
2023-04-13T18:00:31.378Z,5.60
2023-04-13T18:02:58.548Z,5.60
2023-04-13T18:05:26.745Z,5.60
2023-04-13T18:07:53.640Z,5.60
2023-04-13T18:10:20.708Z,5.60
2023-04-13T18:12:49.533Z,5.60
2023-04-13T18:15:16.869Z,5.50
2023-04-13T18:17:44.001Z,5.60
2023-04-13T18:20:11.520Z,5.60
2023-04-13T18:22:39.037Z,5.60
2023-04-13T18:25:06.361Z,5.60
2023-04-13T18:27:33.342Z,5.50
2023-04-13T18:30:00.388Z,5.50
2023-04-13T18:32:27.404Z,5.50
2023-04-13T18:34:54.364Z,5.50
2023-04-13T18:37:22.289Z,5.50
2023-04-13T18:39:49.265Z,5.60
2023-04-13T18:42:16.289Z,5.60
2023-04-13T18:44:43.196Z,5.60
2023-04-13T18:47:11.410Z,5.60
2023-04-13T18:49:38.312Z,5.60
2023-04-13T18:52:05.250Z,5.50
2023-04-13T18:54:32.611Z,5.60
2023-04-13T18:56:59.500Z,5.50
2023-04-13T18:59:28.231Z,5.50
2023-04-13T19:01:55.317Z,5.50
2023-04-13T19:04:22.443Z,5.50
2023-04-13T19:06:49.667Z,5.50
2023-04-13T19:09:16.550Z,5.60
2023-04-13T19:11:53.425Z,5.50
2023-04-13T19:14:20.624Z,5.60
2023-04-13T19:16:47.935Z,5.60
2023-04-13T19:19:15.786Z,5.60
2023-04-13T19:21:42.839Z,5.60
2023-04-13T19:24:13.735Z,5.50
2023-04-13T19:26:41.178Z,5.50
2023-04-13T19:29:13.134Z,5.50
2023-04-13T19:31:43.691Z,5.60
2023-04-13T19:34:11.559Z,5.60
2023-04-13T19:36:39.154Z,5.50
2023-04-13T19:39:07.985Z,5.60
2023-04-13T19:41:36.778Z,5.60
2023-04-13T19:44:05.286Z,5.60
2023-04-13T19:46:35.230Z,5.50
2023-04-13T19:49:03.203Z,5.50
2023-04-13T19:51:33.696Z,5.50
2023-04-13T19:54:02.846Z,5.50
2023-04-13T19:56:30.793Z,5.50
2023-04-13T19:58:58.285Z,5.50
2023-04-13T20:01:26.122Z,5.50
2023-04-13T20:03:53.269Z,5.60
2023-04-13T20:06:20.272Z,5.50
2023-04-13T20:08:47.454Z,5.50
2023-04-13T20:11:14.635Z,5.60
2023-04-13T20:13:41.728Z,5.50
2023-04-13T20:16:10.187Z,5.60
2023-04-13T20:18:37.535Z,5.60
2023-04-13T20:21:06.471Z,5.50
2023-04-13T20:23:34.526Z,5.50
2023-04-13T20:26:01.621Z,5.50
2023-04-13T20:28:28.546Z,5.50
2023-04-13T20:30:55.604Z,5.50
2023-04-13T20:33:22.588Z,5.50
2023-04-13T20:35:49.927Z,5.50
2023-04-13T20:38:16.991Z,5.50
2023-04-13T20:40:45.936Z,5.50
2023-04-13T20:43:16.632Z,5.50
2023-04-13T20:45:47.165Z,5.50
2023-04-13T20:50:47.568Z,5.50
2023-04-13T20:53:15.035Z,5.50
2023-04-13T20:55:42.271Z,5.50
2023-04-13T20:58:10.828Z,5.50
2023-04-13T21:00:38.420Z,5.50
2023-04-13T21:03:08.871Z,5.50
2023-04-13T21:05:36.377Z,5.60
2023-04-13T21:08:03.577Z,5.60
2023-04-13T21:10:30.715Z,5.60
2023-04-13T21:12:57.683Z,5.60
2023-04-13T21:15:24.634Z,5.60
2023-04-13T21:17:51.600Z,5.60
2023-04-13T21:20:18.704Z,5.70
2023-04-13T21:22:45.777Z,5.60
2023-04-13T21:25:12.781Z,5.60
2023-04-13T21:27:39.749Z,5.70
2023-04-13T21:30:07.282Z,5.70
2023-04-13T21:32:34.210Z,5.70
2023-04-13T21:35:01.317Z,5.80
2023-04-13T21:37:31.405Z,5.80
2023-04-13T21:39:58.391Z,5.80
2023-04-13T21:42:25.416Z,5.80
2023-04-13T21:44:52.592Z,5.90
2023-04-13T21:47:19.539Z,5.90
2023-04-13T21:49:46.508Z,5.90
2023-04-13T21:52:13.463Z,5.90
2023-04-13T21:54:40.544Z,5.90
2023-04-13T21:57:07.541Z,5.90
2023-04-13T21:59:34.673Z,6.00
2023-04-13T22:02:01.657Z,6.00
2023-04-13T22:04:30.653Z,6.00
2023-04-13T22:06:57.721Z,6.10
2023-04-13T22:09:24.813Z,6.10
2023-04-13T22:11:51.777Z,6.00
2023-04-13T22:14:19.416Z,6.10
2023-04-13T22:16:48.424Z,6.10
2023-04-13T22:19:16.085Z,6.10
2023-04-13T22:21:43.005Z,6.10
2023-04-13T22:24:10.010Z,6.10
2023-04-13T22:26:36.919Z,6.10
2023-04-13T22:29:03.842Z,6.10
2023-04-13T22:31:31.081Z,6.10
2023-04-13T22:33:58.152Z,6.10
2023-04-13T22:36:25.061Z,6.10
2023-04-13T22:38:52.202Z,6.10
2023-04-13T22:41:19.193Z,6.10
2023-04-13T22:43:46.204Z,6.10
2023-04-13T22:46:13.175Z,6.10
2023-04-13T22:48:40.355Z,6.10
2023-04-13T22:51:07.348Z,6.10
2023-04-13T22:53:34.388Z,6.10
2023-04-13T22:56:01.511Z,6.10
2023-04-13T22:58:28.904Z,6.10
2023-04-13T23:00:56.086Z,6.10
2023-04-13T23:03:23.480Z,6.10
2023-04-13T23:05:50.757Z,6.10
2023-04-13T23:08:17.707Z,6.10
2023-04-13T23:10:44.805Z,6.10
2023-04-13T23:13:11.725Z,6.10
2023-04-13T23:15:39.448Z,6.10
2023-04-13T23:18:06.627Z,6.10
2023-04-13T23:20:33.740Z,6.10
2023-04-13T23:23:00.667Z,6.10
2023-04-13T23:25:27.661Z,6.10
2023-04-13T23:27:54.576Z,6.10
2023-04-13T23:30:21.546Z,6.10
2023-04-13T23:32:48.599Z,6.10
2023-04-13T23:35:15.888Z,6.10
2023-04-13T23:37:45.187Z,6.10
2023-04-13T23:40:12.458Z,6.10
2023-04-13T23:42:39.527Z,6.10
2023-04-13T23:45:07.684Z,6.10
2023-04-13T23:47:34.740Z,6.10
2023-04-13T23:50:01.781Z,6.00
2023-04-13T23:52:28.928Z,6.00
2023-04-13T23:54:56.200Z,6.10
2023-04-13T23:57:23.213Z,6.10
2023-04-13T23:59:56.497Z,6.10
